Time;durP1;ratioP1;P1;durP2;ratioP2;P2;SDS_P1;SDS_P2;PMS_P1;PMS_P2;Temp;Humidity;BMP_temperature;BMP_pressure;BME280_temperature;BME280_humidity;BME280_pressure;Samples;Min_cycle;Max_cycle;Signal;HPM_P1;HPM_P2
2022/03/03 00:00:15;;;;;;;25.50;16.33;;;3.60;99.90;;;;;;6205731;23;20740;-79
2022/03/03 00:02:43;;;;;;;24.17;15.90;;;3.60;99.90;;;;;;6204941;23;20177;-79
2022/03/03 00:05:11;;;;;;;25.23;16.67;;;3.60;99.90;;;;;;6206151;23;20498;-78
2022/03/03 00:07:38;;;;;;;25.43;16.73;;;3.60;99.90;;;;;;6205655;23;20234;-78
2022/03/03 00:10:07;;;;;;;22.20;16.10;;;3.60;99.90;;;;;;6205130;23;20178;-79
2022/03/03 00:12:34;;;;;;;26.10;17.20;;;3.60;99.90;;;;;;6205675;23;20626;-79
2022/03/03 00:15:02;;;;;;;26.50;16.97;;;3.60;99.90;;;;;;6206403;23;20174;-79
2022/03/03 00:17:29;;;;;;;25.87;16.33;;;3.70;99.90;;;;;;6205798;23;20267;-79
2022/03/03 00:19:56;;;;;;;22.17;16.23;;;3.70;99.90;;;;;;6205309;23;20201;-79
2022/03/03 00:22:22;;;;;;;22.37;16.03;;;3.70;99.90;;;;;;6206216;23;20173;-78
2022/03/03 00:24:49;;;;;;;22.10;15.60;;;3.60;99.90;;;;;;6204765;23;20584;-79
2022/03/03 00:27:16;;;;;;;21.53;15.70;;;3.60;99.90;;;;;;6206290;23;20567;-77
2022/03/03 00:29:43;;;;;;;23.93;15.47;;;3.60;99.90;;;;;;6205807;23;20181;-79
2022/03/03 00:32:11;;;;;;;21.93;15.53;;;3.60;99.90;;;;;;6205793;23;20178;-79
2022/03/03 00:34:38;;;;;;;22.53;15.43;;;3.60;99.90;;;;;;6205643;23;20185;-79
2022/03/03 00:37:05;;;;;;;24.87;16.00;;;3.50;99.90;;;;;;6205249;23;20224;-77
2022/03/03 00:39:32;;;;;;;22.97;16.17;;;3.50;99.90;;;;;;6205169;23;20194;-79
2022/03/03 00:41:59;;;;;;;24.73;15.73;;;3.40;99.90;;;;;;6203721;23;20174;-78
2022/03/03 00:44:25;;;;;;;22.53;14.67;;;3.30;99.90;;;;;;6204470;23;20189;-78
2022/03/03 00:46:52;;;;;;;23.83;15.10;;;3.30;99.90;;;;;;6205384;23;20182;-78
2022/03/03 00:49:20;;;;;;;22.30;15.27;;;3.20;99.90;;;;;;6205027;23;20184;-79
2022/03/03 00:51:47;;;;;;;22.23;15.80;;;3.20;99.90;;;;;;6204144;23;20170;-78
2022/03/03 00:54:14;;;;;;;23.03;15.90;;;3.20;99.90;;;;;;6204264;23;20170;-77
2022/03/03 00:56:40;;;;;;;22.73;15.73;;;3.10;99.90;;;;;;6205429;23;20189;-78
2022/03/03 00:59:10;;;;;;;25.97;16.10;;;3.10;99.90;;;;;;6204357;23;20236;-79
2022/03/03 01:01:37;;;;;;;24.00;16.40;;;3.10;99.90;;;;;;6205142;23;20502;-79
2022/03/03 01:04:03;;;;;;;23.90;15.47;;;3.00;99.90;;;;;;6205149;23;20185;-79
2022/03/03 01:06:32;;;;;;;22.43;14.97;;;3.00;99.90;;;;;;6204619;23;20206;-78
2022/03/03 01:08:58;;;;;;;23.67;16.40;;;2.90;99.90;;;;;;6204963;23;20170;-78
2022/03/03 01:11:25;;;;;;;20.47;14.10;;;2.90;99.90;;;;;;6205868;23;20576;-78
2022/03/03 01:13:52;;;;;;;22.50;15.23;;;2.90;99.90;;;;;;6204946;23;20174;-78
2022/03/03 01:16:19;;;;;;;21.90;15.30;;;2.90;99.90;;;;;;6205699;23;20178;-78
2022/03/03 01:18:45;;;;;;;24.80;16.83;;;2.90;99.90;;;;;;6205016;23;20205;-79
2022/03/03 01:21:12;;;;;;;24.33;16.30;;;2.80;99.90;;;;;;6204682;23;20166;-78
2022/03/03 01:23:40;;;;;;;25.30;16.17;;;2.80;99.90;;;;;;6205656;23;20170;-79
2022/03/03 01:26:08;;;;;;;23.10;16.63;;;2.80;99.90;;;;;;6205758;23;20174;-77
2022/03/03 01:28:34;;;;;;;22.67;15.67;;;2.80;99.90;;;;;;6205390;23;20180;-77
2022/03/03 01:31:01;;;;;;;25.30;16.83;;;2.70;99.90;;;;;;6205027;23;20174;-77
2022/03/03 01:33:28;;;;;;;24.17;16.03;;;2.70;99.90;;;;;;6205105;23;20177;-79
2022/03/03 01:35:55;;;;;;;24.77;17.00;;;2.70;99.90;;;;;;6204593;23;20170;-78
2022/03/03 01:38:21;;;;;;;26.10;16.77;;;2.70;99.90;;;;;;6205796;23;20177;-79
2022/03/03 01:40:50;;;;;;;23.70;16.20;;;2.70;99.90;;;;;;6204538;23;20661;-78
2022/03/03 01:43:16;;;;;;;24.53;17.07;;;2.70;99.90;;;;;;6205188;23;20189;-78
2022/03/03 01:45:43;;;;;;;27.20;17.33;;;2.70;99.90;;;;;;6205137;23;20181;-78
2022/03/03 01:48:10;;;;;;;29.97;17.93;;;2.80;99.90;;;;;;6204760;23;20178;-79
2022/03/03 01:50:37;;;;;;;24.80;16.13;;;2.80;99.90;;;;;;6205294;23;20174;-78
2022/03/03 01:53:04;;;;;;;25.30;16.07;;;2.90;99.90;;;;;;6205026;23;20810;-79
2022/03/03 01:55:32;;;;;;;26.20;16.20;;;2.90;99.90;;;;;;6204253;23;20660;-77
2022/03/03 01:58:02;;;;;;;23.40;17.07;;;2.90;99.90;;;;;;6205304;23;20649;-77
2022/03/03 02:00:29;;;;;;;26.03;15.87;;;2.90;99.90;;;;;;6205495;23;20197;-79
2022/03/03 02:02:56;;;;;;;24.53;14.87;;;2.90;99.90;;;;;;6205254;23;20228;-78
2022/03/03 02:05:23;;;;;;;24.70;17.40;;;2.90;99.90;;;;;;6206361;23;20173;-78
2022/03/03 02:07:50;;;;;;;24.27;15.90;;;2.80;99.90;;;;;;6206801;23;20229;-78
2022/03/03 02:10:17;;;;;;;26.37;16.73;;;2.80;99.90;;;;;;6206433;23;20174;-78
2022/03/03 02:12:43;;;;;;;25.57;16.47;;;2.70;99.90;;;;;;6206073;23;20181;-78
2022/03/03 02:15:17;;;;;;;28.50;16.87;;;2.70;99.90;;;;;;6207134;23;20181;-78
2022/03/03 02:17:44;;;;;;;21.63;15.03;;;2.70;99.90;;;;;;6206647;23;20203;-78
2022/03/03 02:20:21;;;;;;;23.07;16.33;;;2.70;99.90;;;;;;6207571;23;20202;-80
2022/03/03 02:22:48;;;;;;;21.07;14.73;;;2.70;99.90;;;;;;6205844;23;20169;-79
2022/03/03 02:25:15;;;;;;;24.60;16.53;;;2.70;99.90;;;;;;6206672;23;20173;-78
2022/03/03 02:27:43;;;;;;;26.87;17.23;;;2.70;99.90;;;;;;6206289;23;20180;-78
2022/03/03 02:30:10;;;;;;;26.10;16.10;;;2.70;99.90;;;;;;6206507;23;20170;-78
2022/03/03 02:32:37;;;;;;;23.57;16.37;;;2.70;99.90;;;;;;6206722;23;20186;-78
2022/03/03 02:35:05;;;;;;;27.57;16.87;;;2.70;99.90;;;;;;6206316;23;20581;-78
2022/03/03 02:37:34;;;;;;;23.17;15.60;;;2.70;99.90;;;;;;6206180;23;20170;-77
2022/03/03 02:40:01;;;;;;;24.20;16.80;;;2.70;99.90;;;;;;6206086;23;20194;-78
2022/03/03 02:42:27;;;;;;;21.77;15.67;;;2.70;99.90;;;;;;6207276;23;20185;-77
2022/03/03 02:44:54;;;;;;;21.10;14.93;;;2.70;99.90;;;;;;6205657;23;20507;-78
2022/03/03 02:57:57;;;;;;;26.27;16.77;;;2.60;99.90;;;;;;6207900;23;20174;-78
2022/03/03 03:00:26;;;;;;;27.07;16.87;;;2.60;99.90;;;;;;6204353;23;20252;-78
2022/03/03 03:02:53;;;;;;;22.03;14.80;;;2.50;99.90;;;;;;6206295;23;20162;-78
2022/03/03 03:05:20;;;;;;;24.53;15.80;;;2.50;99.90;;;;;;6206317;23;20174;-78
2022/03/03 03:07:47;;;;;;;26.57;16.90;;;2.50;99.90;;;;;;6206466;23;20536;-78
2022/03/03 03:10:14;;;;;;;24.07;15.97;;;2.50;99.90;;;;;;6206739;23;20170;-77
2022/03/03 03:12:41;;;;;;;23.93;16.03;;;2.50;99.90;;;;;;6205425;23;20174;-79
2022/03/03 03:15:10;;;;;;;27.93;17.30;;;2.50;99.90;;;;;;6206082;23;20264;-78
2022/03/03 03:17:37;;;;;;;28.23;17.37;;;2.50;99.90;;;;;;6206171;23;20648;-78
2022/03/03 03:20:06;;;;;;;24.83;17.30;;;2.50;99.90;;;;;;6205153;23;20932;-79
2022/03/03 03:22:33;;;;;;;25.60;16.53;;;2.50;99.90;;;;;;6205462;23;20182;-78
2022/03/03 03:25:00;;;;;;;27.63;16.20;;;2.50;99.90;;;;;;6206135;23;20189;-78
2022/03/03 03:27:27;;;;;;;22.97;15.47;;;2.40;99.90;;;;;;6205884;23;20185;-78
2022/03/03 03:29:54;;;;;;;25.47;16.10;;;2.40;99.90;;;;;;6206810;23;20170;-78
2022/03/03 03:32:22;;;;;;;29.43;16.83;;;2.50;99.90;;;;;;6206418;23;20777;-77
2022/03/03 03:34:49;;;;;;;23.07;16.10;;;2.50;99.90;;;;;;6206320;23;20174;-78
2022/03/03 03:37:16;;;;;;;29.67;17.03;;;2.50;99.90;;;;;;6206380;23;20189;-77
2022/03/03 03:39:43;;;;;;;27.43;16.57;;;2.50;99.90;;;;;;6206195;23;20899;-78
2022/03/03 03:42:09;;;;;;;26.43;17.00;;;2.50;99.90;;;;;;6205298;23;20185;-78
2022/03/03 03:44:38;;;;;;;23.93;15.70;;;2.50;99.90;;;;;;6205239;23;20169;-78
2022/03/03 03:47:05;;;;;;;23.50;15.13;;;2.50;99.90;;;;;;6204606;23;20249;-78
2022/03/03 03:49:34;;;;;;;26.00;16.57;;;2.60;99.90;;;;;;6205395;23;20166;-78
2022/03/03 03:52:01;;;;;;;26.50;16.87;;;2.60;99.90;;;;;;6206689;23;20212;-78
2022/03/03 03:54:28;;;;;;;24.80;15.70;;;2.60;99.90;;;;;;6205335;23;20174;-79
2022/03/03 03:56:55;;;;;;;23.63;16.20;;;2.60;99.90;;;;;;6205557;23;20201;-79
2022/03/03 03:59:22;;;;;;;21.83;15.43;;;2.60;99.90;;;;;;6205617;23;20197;-78
2022/03/03 04:01:49;;;;;;;21.17;14.67;;;2.50;99.90;;;;;;6205043;23;20166;-78
2022/03/03 04:04:16;;;;;;;24.20;15.63;;;2.50;99.90;;;;;;6204749;23;20598;-77
2022/03/03 04:06:44;;;;;;;25.77;17.03;;;2.40;99.90;;;;;;6204836;23;20205;-79
2022/03/03 04:09:11;;;;;;;24.77;15.60;;;2.40;99.90;;;;;;6205521;23;20182;-78
2022/03/03 04:11:37;;;;;;;25.00;16.13;;;2.40;99.90;;;;;;6205575;23;20178;-77
2022/03/03 04:14:04;;;;;;;23.63;16.23;;;2.30;99.90;;;;;;6205900;23;20174;-77
2022/03/03 04:16:31;;;;;;;25.13;16.83;;;2.30;99.90;;;;;;6204679;23;20178;-78
2022/03/03 04:19:00;;;;;;;24.40;18.03;;;2.20;99.90;;;;;;6205758;23;20166;-78
2022/03/03 04:21:27;;;;;;;25.23;16.60;;;2.20;99.90;;;;;;6205535;23;20178;-78
2022/03/03 04:23:55;;;;;;;23.80;15.47;;;2.20;99.90;;;;;;6205212;23;20181;-78
2022/03/03 04:26:22;;;;;;;21.73;15.40;;;2.20;99.90;;;;;;6205788;23;20177;-77
2022/03/03 04:28:49;;;;;;;26.00;17.23;;;2.10;99.90;;;;;;6206394;23;20174;-78
2022/03/03 04:31:16;;;;;;;22.83;15.90;;;2.10;99.90;;;;;;6204429;23;20580;-79
2022/03/03 04:33:43;;;;;;;27.57;17.07;;;2.10;99.90;;;;;;6205350;23;20170;-78
2022/03/03 04:36:10;;;;;;;25.40;17.13;;;2.00;99.90;;;;;;6205399;23;20229;-78
2022/03/03 04:38:36;;;;;;;24.43;16.20;;;2.00;99.90;;;;;;6204874;23;20166;-78
2022/03/03 04:41:04;;;;;;;22.90;15.50;;;2.00;99.90;;;;;;6205212;23;20464;-78
2022/03/03 04:43:31;;;;;;;24.43;16.30;;;2.00;99.90;;;;;;6204634;23;20568;-78
2022/03/03 04:45:58;;;;;;;23.90;16.73;;;1.90;99.90;;;;;;6205335;23;20166;-77
2022/03/03 04:48:29;;;;;;;25.23;17.03;;;1.90;99.90;;;;;;6205253;23;20438;-76
2022/03/03 04:50:58;;;;;;;27.17;17.90;;;1.90;99.90;;;;;;6205005;23;20162;-79
2022/03/03 04:53:25;;;;;;;28.03;17.10;;;1.90;99.90;;;;;;6204919;23;20174;-77
2022/03/03 04:55:52;;;;;;;23.87;16.07;;;1.90;99.90;;;;;;6205321;23;20200;-78
2022/03/03 04:58:21;;;;;;;26.53;17.67;;;1.90;99.90;;;;;;6204099;23;20189;-79
2022/03/03 05:00:48;;;;;;;23.87;15.83;;;1.90;99.90;;;;;;6205806;23;20201;-77
2022/03/03 05:03:15;;;;;;;28.27;18.57;;;1.80;99.90;;;;;;6205629;23;20177;-77
2022/03/03 05:05:42;;;;;;;24.53;15.70;;;1.70;99.90;;;;;;6204137;23;20181;-77
2022/03/03 05:08:09;;;;;;;25.53;16.40;;;1.70;99.90;;;;;;6205090;23;20181;-77
2022/03/03 05:10:36;;;;;;;30.53;17.33;;;1.60;99.90;;;;;;6205511;23;20174;-77
2022/03/03 05:13:04;;;;;;;27.23;16.63;;;1.60;99.90;;;;;;6204848;23;20235;-78
2022/03/03 05:15:32;;;;;;;27.03;16.87;;;1.60;99.90;;;;;;6204795;23;20192;-79
2022/03/03 05:17:59;;;;;;;25.40;16.67;;;1.50;99.90;;;;;;6205050;23;20441;-78
2022/03/03 05:20:26;;;;;;;26.23;16.03;;;1.50;99.90;;;;;;6204584;23;20280;-77
2022/03/03 05:22:53;;;;;;;25.03;17.33;;;1.50;99.90;;;;;;6205638;23;20178;-78
2022/03/03 05:25:19;;;;;;;27.10;17.60;;;1.40;99.90;;;;;;6204562;23;20181;-79
2022/03/03 05:27:46;;;;;;;29.07;17.33;;;1.50;99.90;;;;;;6205516;23;20180;-78
2022/03/03 05:30:13;;;;;;;28.13;16.73;;;1.50;99.90;;;;;;6204429;23;20173;-78
2022/03/03 05:32:41;;;;;;;30.20;17.67;;;1.50;99.90;;;;;;6204354;23;20170;-78
2022/03/03 05:35:09;;;;;;;26.80;16.80;;;1.50;99.90;;;;;;6204896;23;20181;-78
2022/03/03 05:37:36;;;;;;;25.80;18.10;;;1.50;99.90;;;;;;6206277;23;20185;-78
2022/03/03 05:40:03;;;;;;;27.63;18.37;;;1.50;99.90;;;;;;6206799;23;20197;-77
2022/03/03 05:42:30;;;;;;;26.23;18.13;;;1.50;99.90;;;;;;6207319;23;20178;-78
2022/03/03 05:44:57;;;;;;;23.23;16.40;;;1.50;99.90;;;;;;6207143;23;20166;-78
2022/03/03 05:47:28;;;;;;;25.37;16.60;;;1.50;99.90;;;;;;6205997;23;20173;-78
2022/03/03 05:49:57;;;;;;;27.87;18.73;;;1.50;99.90;;;;;;6207261;23;20174;-78
2022/03/03 05:52:24;;;;;;;25.27;16.87;;;1.40;99.90;;;;;;6207004;23;20185;-77
2022/03/03 05:54:50;;;;;;;27.33;17.13;;;1.40;99.90;;;;;;6206847;23;20170;-78
2022/03/03 05:57:19;;;;;;;25.33;16.57;;;1.30;99.90;;;;;;6206984;23;20166;-78
2022/03/03 05:59:49;;;;;;;25.73;17.57;;;1.30;99.90;;;;;;6206818;23;20178;-77
2022/03/03 06:02:19;;;;;;;29.40;18.23;;;1.30;99.90;;;;;;6208501;23;20166;-78
2022/03/03 06:04:48;;;;;;;26.73;17.37;;;1.30;99.90;;;;;;6208491;23;20189;-77
2022/03/03 06:07:24;;;;;;;26.37;17.50;;;1.30;99.90;;;;;;6206694;23;20202;-76
2022/03/03 06:09:53;;;;;;;29.23;18.00;;;1.30;99.90;;;;;;6206595;23;20199;-78
2022/03/03 06:12:26;;;;;;;26.83;17.67;;;1.30;99.90;;;;;;6207623;23;20237;-78
2022/03/03 06:14:54;;;;;;;27.03;18.63;;;1.30;99.90;;;;;;6207328;23;20166;-78
2022/03/03 06:17:23;;;;;;;27.53;18.20;;;1.30;99.90;;;;;;6207333;23;20814;-78
2022/03/03 06:19:52;;;;;;;28.13;18.83;;;1.30;99.90;;;;;;6206910;23;20185;-77
2022/03/03 06:22:21;;;;;;;26.33;17.47;;;1.30;99.90;;;;;;6205788;23;20203;-76
2022/03/03 06:24:48;;;;;;;28.07;18.00;;;1.30;99.90;;;;;;6207153;23;20174;-78
2022/03/03 06:27:15;;;;;;;28.67;18.40;;;1.30;99.90;;;;;;6206349;23;20178;-78
2022/03/03 06:29:41;;;;;;;27.23;16.87;;;1.30;99.90;;;;;;6205467;23;20178;-79
2022/03/03 06:32:09;;;;;;;24.07;17.30;;;1.20;99.90;;;;;;6206677;23;20193;-78
2022/03/03 06:34:36;;;;;;;28.00;18.87;;;1.20;99.90;;;;;;6205986;23;20170;-76
2022/03/03 06:37:04;;;;;;;26.23;18.10;;;1.30;99.90;;;;;;6206457;23;20178;-77
2022/03/03 06:39:32;;;;;;;30.33;19.07;;;1.30;99.90;;;;;;6207849;23;20174;-79
2022/03/03 06:41:59;;;;;;;27.80;18.07;;;1.30;99.90;;;;;;6207371;23;20202;-77
2022/03/03 06:44:26;;;;;;;29.73;19.00;;;1.20;99.90;;;;;;6205628;23;20170;-78
2022/03/03 06:46:53;;;;;;;29.37;17.33;;;1.20;99.90;;;;;;6206684;23;20173;-78
2022/03/03 06:49:19;;;;;;;27.23;18.70;;;1.20;99.90;;;;;;6206268;23;20178;-78
2022/03/03 06:51:48;;;;;;;28.57;17.93;;;1.20;99.90;;;;;;6205294;23;20221;-78
2022/03/03 06:54:17;;;;;;;28.17;19.27;;;1.20;99.90;;;;;;6206323;23;20178;-78
2022/03/03 06:56:50;;;;;;;26.93;18.20;;;1.30;99.90;;;;;;6205872;23;20197;-77
2022/03/03 06:59:19;;;;;;;26.90;17.90;;;1.20;99.90;;;;;;6205345;23;20237;-77
2022/03/03 07:01:48;;;;;;;28.07;16.97;;;1.30;99.90;;;;;;6206034;23;20194;-78
2022/03/03 07:04:15;;;;;;;29.43;19.00;;;1.30;99.90;;;;;;6205155;23;20290;-78
2022/03/03 07:06:44;;;;;;;28.63;18.43;;;1.30;99.90;;;;;;6206815;23;20240;-76
2022/03/03 07:09:11;;;;;;;32.87;19.30;;;1.30;99.90;;;;;;6206589;23;20166;-76
2022/03/03 07:11:39;;;;;;;22.60;16.97;;;1.30;99.90;;;;;;6206476;23;20167;-77
2022/03/03 07:14:08;;;;;;;33.03;19.10;;;1.30;99.90;;;;;;6207257;23;20174;-76
2022/03/03 07:16:42;;;;;;;30.67;19.53;;;1.40;99.90;;;;;;6206387;23;20214;-77
2022/03/03 07:19:29;;;;;;;27.23;18.53;;;1.50;99.90;;;;;;6206716;23;20166;-78
2022/03/03 07:22:10;;;;;;;27.67;18.47;;;1.60;99.90;;;;;;6208191;23;20202;-79
2022/03/03 07:24:44;;;;;;;28.90;18.63;;;1.60;99.90;;;;;;6206523;23;20166;-78
2022/03/03 07:27:18;;;;;;;27.80;18.73;;;1.70;99.90;;;;;;6206037;23;20578;-77
2022/03/03 07:29:50;;;;;;;29.80;18.57;;;1.80;99.90;;;;;;6206302;23;20180;-78
2022/03/03 07:32:20;;;;;;;28.77;17.93;;;1.80;99.90;;;;;;6205837;23;20174;-78
2022/03/03 07:35:01;;;;;;;28.27;18.30;;;1.80;99.90;;;;;;6206252;23;20177;-78
2022/03/03 07:37:32;;;;;;;28.20;17.30;;;1.80;99.90;;;;;;6205790;23;20209;-77
2022/03/03 07:40:06;;;;;;;28.43;18.47;;;1.90;99.90;;;;;;6206652;23;20409;-78
2022/03/03 07:42:33;;;;;;;26.27;17.47;;;2.00;99.90;;;;;;6205538;23;20173;-76
2022/03/03 07:45:03;;;;;;;28.17;18.37;;;2.00;99.90;;;;;;6206858;23;20178;-77
2022/03/03 07:47:31;;;;;;;27.60;18.50;;;2.00;99.90;;;;;;6205287;23;20602;-78
2022/03/03 07:49:58;;;;;;;25.80;18.50;;;2.10;99.90;;;;;;6206444;23;20174;-78
2022/03/03 07:52:26;;;;;;;29.73;19.70;;;2.10;99.90;;;;;;6206004;23;20170;-78
2022/03/03 07:54:53;;;;;;;27.40;18.37;;;2.10;99.90;;;;;;6204491;23;20197;-78
2022/03/03 07:57:22;;;;;;;27.60;17.43;;;2.20;99.90;;;;;;6206174;23;20588;-76
2022/03/03 07:59:57;;;;;;;28.10;18.57;;;2.20;99.90;;;;;;6205451;23;20181;-78
2022/03/03 08:02:26;;;;;;;27.37;18.20;;;2.20;99.90;;;;;;6205997;23;20192;-77
2022/03/03 08:04:53;;;;;;;27.97;17.83;;;2.40;99.90;;;;;;6205576;23;20261;-78
2022/03/03 08:07:21;;;;;;;25.87;18.90;;;2.40;99.90;;;;;;6203393;23;20640;-78
2022/03/03 08:09:49;;;;;;;25.93;17.60;;;2.50;99.90;;;;;;6205334;23;20197;-78
2022/03/03 08:12:17;;;;;;;29.97;20.43;;;2.60;99.90;;;;;;6204967;23;20189;-77
2022/03/03 08:14:46;;;;;;;28.67;17.73;;;2.60;99.90;;;;;;6206174;23;20185;-76
2022/03/03 08:17:15;;;;;;;28.73;19.17;;;2.70;99.90;;;;;;6206402;23;20175;-80
2022/03/03 08:19:44;;;;;;;28.97;19.53;;;2.70;99.90;;;;;;6205962;23;20627;-78
2022/03/03 08:22:13;;;;;;;26.50;18.00;;;2.80;99.90;;;;;;6204734;23;20281;-78
2022/03/03 08:24:43;;;;;;;27.70;18.50;;;2.80;99.90;;;;;;6205747;23;20170;-79
2022/03/03 08:27:11;;;;;;;27.83;18.13;;;2.90;99.90;;;;;;6205221;23;20204;-78
2022/03/03 08:29:38;;;;;;;26.13;18.37;;;2.90;99.90;;;;;;6204635;23;20442;-79
2022/03/03 08:32:11;;;;;;;25.40;17.67;;;3.00;99.90;;;;;;6206908;23;20170;-79
2022/03/03 08:34:48;;;;;;;28.10;18.43;;;3.10;99.90;;;;;;6202588;23;20824;-78
2022/03/03 08:37:25;;;;;;;27.33;17.93;;;3.10;99.90;;;;;;6201484;23;20252;-78
2022/03/03 08:39:53;;;;;;;30.60;19.40;;;3.20;99.90;;;;;;6202504;23;20250;-78
2022/03/03 08:42:24;;;;;;;27.10;18.77;;;3.30;99.90;;;;;;6201305;23;20205;-78
2022/03/03 08:44:53;;;;;;;26.63;17.60;;;3.30;99.90;;;;;;6203015;23;20511;-78
2022/03/03 08:47:22;;;;;;;25.43;18.73;;;3.40;99.90;;;;;;6203126;23;20740;-78
2022/03/03 08:49:57;;;;;;;31.83;19.10;;;3.50;99.90;;;;;;6202276;23;20209;-79
2022/03/03 08:52:24;;;;;;;26.83;18.10;;;3.60;99.90;;;;;;6203489;23;20177;-77
2022/03/03 08:54:51;;;;;;;25.20;17.67;;;3.60;99.90;;;;;;6203832;23;20182;-78
2022/03/03 08:57:18;;;;;;;29.53;18.80;;;3.70;99.90;;;;;;6204435;23;20605;-77
2022/03/03 08:59:45;;;;;;;23.90;17.10;;;3.70;99.90;;;;;;6205317;23;20218;-78
2022/03/03 09:02:16;;;;;;;25.10;17.50;;;3.80;99.90;;;;;;6204701;23;20189;-78
2022/03/03 09:04:42;;;;;;;27.60;18.27;;;3.90;99.90;;;;;;6204651;23;20822;-78
2022/03/03 09:07:11;;;;;;;26.17;17.13;;;4.00;99.90;;;;;;6204951;23;20229;-78
2022/03/03 09:09:38;;;;;;;22.40;16.63;;;4.00;99.90;;;;;;6205154;23;20180;-78
2022/03/03 09:12:05;;;;;;;22.87;16.37;;;4.10;99.90;;;;;;6204196;23;20200;-78
2022/03/03 09:14:33;;;;;;;25.40;18.70;;;4.20;99.90;;;;;;6204793;23;20176;-78
2022/03/03 09:17:00;;;;;;;25.77;18.30;;;4.20;99.90;;;;;;6204897;23;20174;-78
2022/03/03 09:19:27;;;;;;;29.13;19.67;;;4.30;99.90;;;;;;6204224;23;20853;-77
2022/03/03 09:21:55;;;;;;;23.03;17.60;;;4.50;99.90;;;;;;6204239;23;20272;-78
2022/03/03 09:24:23;;;;;;;24.60;17.80;;;4.50;99.90;;;;;;6205703;23;20178;-78
2022/03/03 09:26:50;;;;;;;25.87;17.97;;;4.60;99.90;;;;;;6204903;23;20236;-78
2022/03/03 09:29:17;;;;;;;22.77;16.33;;;4.70;99.90;;;;;;6204843;23;20593;-78
2022/03/03 09:31:44;;;;;;;29.63;17.00;;;4.90;99.90;;;;;;6205180;23;20178;-76
2022/03/03 09:34:12;;;;;;;25.27;17.67;;;5.00;99.90;;;;;;6205738;23;20492;-78
2022/03/03 09:36:38;;;;;;;23.90;16.80;;;5.20;99.90;;;;;;6205668;23;20174;-78
2022/03/03 09:39:06;;;;;;;22.83;15.83;;;5.30;99.90;;;;;;6205159;23;20167;-80
2022/03/03 09:41:34;;;;;;;22.83;16.17;;;5.40;99.90;;;;;;6205654;23;20252;-79
2022/03/03 09:44:01;;;;;;;26.30;17.00;;;5.50;99.90;;;;;;6205189;23;20213;-80
2022/03/03 09:46:28;;;;;;;22.00;16.60;;;5.70;99.90;;;;;;6204870;23;20174;-78
2022/03/03 09:48:54;;;;;;;24.73;16.77;;;5.90;99.90;;;;;;6205121;23;20574;-79
2022/03/03 09:51:21;;;;;;;23.93;15.80;;;6.00;99.90;;;;;;6205070;23;20179;-79
2022/03/03 09:53:49;;;;;;;21.40;15.57;;;6.10;99.90;;;;;;6205318;23;20170;-78
2022/03/03 09:56:16;;;;;;;22.67;14.43;;;6.30;99.90;;;;;;6205092;23;20555;-79
2022/03/03 09:58:44;;;;;;;19.50;14.17;;;6.50;99.90;;;;;;6205682;23;20177;-79
2022/03/03 10:01:11;;;;;;;20.90;14.43;;;6.60;99.90;;;;;;6205264;23;20205;-78
2022/03/03 10:03:38;;;;;;;20.80;13.83;;;6.80;99.90;;;;;;6205424;23;20174;-79
2022/03/03 10:06:05;;;;;;;19.77;14.07;;;6.90;99.90;;;;;;6205153;23;20272;-79
2022/03/03 10:08:32;;;;;;;17.60;12.67;;;7.10;99.90;;;;;;6203637;23;20527;-79
2022/03/03 10:11:01;;;;;;;16.70;12.37;;;7.30;99.90;;;;;;6204748;23;20166;-79
2022/03/03 10:13:43;;;;;;;18.80;12.93;;;7.50;99.90;;;;;;6205734;23;20232;-78
2022/03/03 10:16:12;;;;;;;18.73;13.20;;;7.60;99.90;;;;;;6205685;23;20170;-78
2022/03/03 10:18:39;;;;;;;20.10;13.27;;;7.80;99.90;;;;;;6205864;23;20579;-79
2022/03/03 10:21:06;;;;;;;21.13;14.57;;;8.00;99.90;;;;;;6204483;23;20178;-79
2022/03/03 10:23:37;;;;;;;18.97;13.63;;;8.20;99.90;;;;;;6206004;23;20170;-78
2022/03/03 10:26:09;;;;;;;20.73;13.47;;;8.40;99.90;;;;;;6207038;23;20709;-78
2022/03/03 10:28:37;;;;;;;22.50;15.37;;;8.50;99.90;;;;;;6206806;23;20177;-79
2022/03/03 10:31:07;;;;;;;18.43;14.27;;;8.70;99.90;;;;;;6207535;23;20178;-79
2022/03/03 10:33:37;;;;;;;16.50;13.03;;;8.80;99.90;;;;;;6206803;23;20494;-79
2022/03/03 10:36:09;;;;;;;18.17;13.27;;;8.90;99.90;;;;;;6205651;23;20209;-79
2022/03/03 10:38:48;;;;;;;18.20;13.00;;;9.10;99.90;;;;;;6206033;23;20170;-78
2022/03/03 10:41:33;;;;;;;18.87;13.33;;;9.30;99.90;;;;;;6207260;23;20174;-78
2022/03/03 10:44:01;;;;;;;16.87;12.47;;;9.40;99.90;;;;;;6206870;23;20304;-78
2022/03/03 10:46:28;;;;;;;18.33;12.80;;;9.60;99.90;;;;;;6206250;23;20205;-78
2022/03/03 10:48:56;;;;;;;18.33;13.93;;;9.70;99.90;;;;;;6206712;23;20185;-78
2022/03/03 10:51:25;;;;;;;18.77;12.63;;;9.90;99.90;;;;;;6205914;23;20209;-79
2022/03/03 10:53:56;;;;;;;19.60;11.67;;;10.10;99.90;;;;;;6206485;23;20213;-79
2022/03/03 10:56:23;;;;;;;16.43;12.20;;;10.20;99.90;;;;;;6205949;23;20198;-80
2022/03/03 10:58:53;;;;;;;16.20;12.47;;;10.30;99.90;;;;;;6206304;23;20185;-78
2022/03/03 11:01:22;;;;;;;15.40;12.20;;;10.50;99.90;;;;;;6206814;23;20249;-78
2022/03/03 11:03:53;;;;;;;14.37;11.40;;;10.60;99.90;;;;;;6206734;23;20185;-79
2022/03/03 11:06:24;;;;;;;14.37;11.47;;;10.80;99.90;;;;;;6205584;23;20657;-79
2022/03/03 11:08:52;;;;;;;14.87;10.70;;;10.90;99.90;;;;;;6207065;23;20696;-78
2022/03/03 11:11:20;;;;;;;14.63;11.43;;;11.10;99.90;;;;;;6206095;23;20176;-78
2022/03/03 11:13:49;;;;;;;13.90;11.17;;;11.20;99.90;;;;;;6206044;23;20192;-77
2022/03/03 11:16:17;;;;;;;13.53;10.93;;;11.20;99.90;;;;;;6206459;23;20478;-76
2022/03/03 11:18:44;;;;;;;12.97;10.50;;;11.30;99.90;;;;;;6206019;23;20178;-78
2022/03/03 11:21:12;;;;;;;13.53;10.20;;;11.30;99.90;;;;;;6205455;23;20178;-78
2022/03/03 11:23:43;;;;;;;13.10;10.27;;;11.40;99.90;;;;;;6205982;23;20271;-78
2022/03/03 11:26:19;;;;;;;14.93;11.27;;;11.50;99.90;;;;;;6205301;23;20169;-79
2022/03/03 11:28:58;;;;;;;12.40;10.97;;;11.40;99.90;;;;;;6205623;23;20162;-78
2022/03/03 11:31:30;;;;;;;13.83;9.97;;;11.50;99.90;;;;;;6205397;23;20236;-79
2022/03/03 11:34:29;;;;;;;13.93;11.13;;;11.60;99.90;;;;;;6205981;23;20816;-78
2022/03/03 11:37:05;;;;;;;15.33;11.13;;;11.70;99.90;;;;;;6206497;23;20528;-79
2022/03/03 11:39:45;;;;;;;13.60;10.87;;;11.70;99.90;;;;;;6204662;23;20784;-78
2022/03/03 11:42:26;;;;;;;13.53;10.93;;;11.80;99.90;;;;;;6205070;23;20248;-78
2022/03/03 11:44:55;;;;;;;13.97;11.13;;;12.00;99.90;;;;;;6206270;23;20166;-78
2022/03/03 11:47:25;;;;;;;11.40;10.10;;;12.10;99.90;;;;;;6205859;23;20182;-79
2022/03/03 11:50:16;;;;;;;13.10;11.50;;;12.40;99.90;;;;;;6206016;23;20416;-78
2022/03/03 11:52:45;;;;;;;14.47;12.33;;;12.50;99.90;;;;;;6205387;23;20194;-79
2022/03/03 11:55:31;;;;;;;15.53;11.67;;;12.50;99.90;;;;;;6205243;23;20495;-78
2022/03/03 11:58:00;;;;;;;13.20;11.27;;;12.40;99.90;;;;;;6206010;23;20197;-77
2022/03/03 12:00:28;;;;;;;15.07;12.20;;;12.40;99.90;;;;;;6205890;23;20182;-77
2022/03/03 12:02:59;;;;;;;15.93;11.33;;;12.30;99.90;;;;;;6205879;23;20575;-77
2022/03/03 12:05:40;;;;;;;14.63;12.50;;;12.30;99.90;;;;;;6205920;23;20167;-79
2022/03/03 12:08:29;;;;;;;14.73;11.67;;;12.20;99.90;;;;;;6204816;23;20190;-78
2022/03/03 12:11:02;;;;;;;16.30;13.00;;;12.30;99.90;;;;;;6205868;23;20174;-77
2022/03/03 12:13:32;;;;;;;15.73;13.30;;;12.30;99.90;;;;;;6204100;23;20208;-78
2022/03/03 12:16:27;;;;;;;17.63;13.40;;;12.30;99.90;;;;;;6206985;23;20235;-77
2022/03/03 12:19:12;;;;;;;15.97;12.63;;;12.30;99.90;;;;;;6206013;23;20435;-77
2022/03/03 12:21:41;;;;;;;16.63;12.83;;;12.40;99.90;;;;;;6205476;23;20288;-77
2022/03/03 12:24:41;;;;;;;18.77;13.13;;;12.40;99.90;;;;;;6205992;23;20713;-77
2022/03/03 12:27:15;;;;;;;15.53;12.70;;;12.30;99.90;;;;;;6205601;23;20173;-77
2022/03/03 12:29:57;;;;;;;15.17;13.57;;;12.30;99.90;;;;;;6204636;23;20166;-77
2022/03/03 12:32:35;;;;;;;17.30;12.70;;;12.30;99.90;;;;;;6205036;23;20249;-77
2022/03/03 12:35:05;;;;;;;18.83;13.80;;;12.30;99.90;;;;;;6204756;23;20550;-77
2022/03/03 12:37:33;;;;;;;15.97;12.70;;;12.20;99.90;;;;;;6204683;23;20575;-76
2022/03/03 12:40:04;;;;;;;16.90;13.67;;;12.30;99.90;;;;;;6206360;23;20170;-77
2022/03/03 12:42:33;;;;;;;18.00;13.60;;;12.20;99.90;;;;;;6205473;23;20186;-76
2022/03/03 12:45:01;;;;;;;17.80;13.13;;;12.20;99.90;;;;;;6206600;23;20197;-76
2022/03/03 12:47:33;;;;;;;15.67;13.03;;;12.20;99.90;;;;;;6205623;23;20185;-76
2022/03/03 12:50:06;;;;;;;14.77;13.03;;;12.00;99.90;;;;;;6204801;23;20174;-77
2022/03/03 12:52:33;;;;;;;18.13;14.07;;;12.00;99.90;;;;;;6205086;23;20236;-77
2022/03/03 12:55:01;;;;;;;17.83;14.07;;;12.00;99.90;;;;;;6205473;23;20447;-77